Time;durP1;ratioP1;P1;durP2;ratioP2;P2;SDS_P1;SDS_P2;PMS_P1;PMS_P2;Temp;Humidity;BMP_temperature;BMP_pressure;BME280_temperature;BME280_humidity;BME280_pressure;Samples;Min_cycle;Max_cycle;Signal;HPM_P1;HPM_P2
2022/04/07 00:00:39;;;;;;;18.43;9.90;;;;;;;;;;748829;185;1146034;-61
2022/04/07 00:03:05;;;;;;;16.58;10.10;;;;;;;;;;742777;185;920030;-60
2022/04/07 00:05:31;;;;;;;16.93;11.00;;;;;;;;;;748529;188;919455;-60
2022/04/07 00:07:56;;;;;;;18.40;10.57;;;;;;;;;;734145;185;919275;-60
2022/04/07 00:10:22;;;;;;;15.23;11.27;;;;;;;;;;729220;185;918972;-61
2022/04/07 00:12:48;;;;;;;17.23;12.17;;;;;;;;;;742787;185;919439;-60
2022/04/07 00:15:14;;;;;;;14.53;11.30;;;;;;;;;;755317;185;918132;-62
2022/04/07 00:17:40;;;;;;;17.30;10.67;;;;;;;;;;741946;185;919563;-60
2022/04/07 00:20:06;;;;;;;17.50;10.40;;;;;;;;;;740061;188;918907;-61
2022/04/07 00:22:33;;;;;;;15.13;10.63;;;;;;;;;;744887;188;918913;-61
2022/04/07 00:24:58;;;;;;;13.07;9.90;;;;;;;;;;711911;192;923564;-61
2022/04/07 00:27:24;;;;;;;16.10;9.98;;;;;;;;;;724204;192;919346;-60
2022/04/07 00:29:50;;;;;;;16.17;12.27;;;;;;;;;;747795;187;918686;-61
2022/04/07 00:32:16;;;;;;;13.43;9.77;;;;;;;;;;744662;184;920337;-60
2022/04/07 00:34:46;;;;;;;15.77;10.50;;;;;;;;;;742229;187;919621;-60
2022/04/07 00:37:07;;;;;;;17.57;10.67;;;;;;;;;;742985;187;919871;-60
2022/04/07 00:39:34;;;;;;;14.83;9.43;;;;;;;;;;751769;186;928442;-60
2022/04/07 00:41:59;;;;;;;18.80;11.80;;;;;;;;;;747330;187;919673;-61
2022/04/07 00:44:27;;;;;;;16.33;12.07;;;;;;;;;;745286;187;919563;-60
2022/04/07 00:46:51;;;;;;;14.70;9.80;;;;;;;;;;750808;185;919685;-62
2022/04/07 00:49:17;;;;;;;17.20;9.97;;;;;;;;;;731642;186;919668;-61
2022/04/07 00:51:42;;;;;;;14.63;10.23;;;;;;;;;;730097;190;926870;-60
2022/04/07 00:54:08;;;;;;;14.03;9.50;;;;;;;;;;748256;185;918921;-60
2022/04/07 00:56:35;;;;;;;14.30;9.57;;;;;;;;;;746214;184;919049;-61
2022/04/07 00:59:00;;;;;;;13.90;10.00;;;;;;;;;;752444;184;1023251;-61
2022/04/07 01:01:28;;;;;;;13.80;9.07;;;;;;;;;;750597;184;919778;-59
2022/04/07 01:03:52;;;;;;;15.17;8.53;;;;;;;;;;745291;183;919084;-60
2022/04/07 01:06:18;;;;;;;16.00;9.47;;;;;;;;;;744625;186;919477;-61
2022/04/07 01:08:43;;;;;;;11.97;8.93;;;;;;;;;;748150;186;919377;-61
2022/04/07 01:11:09;;;;;;;13.80;9.60;;;;;;;;;;754254;186;919440;-60
2022/04/07 01:13:42;;;;;;;17.50;11.20;;;;;;;;;;743114;188;919967;-60
2022/04/07 01:16:08;;;;;;;11.23;9.47;;;;;;;;;;742587;188;920477;-60
2022/04/07 01:18:33;;;;;;;13.77;9.57;;;;;;;;;;744888;187;919969;-60
2022/04/07 01:20:59;;;;;;;14.33;9.23;;;;;;;;;;738729;188;919955;-61
2022/04/07 01:23:25;;;;;;;13.27;9.50;;;;;;;;;;739483;187;918811;-60
2022/04/07 01:25:51;;;;;;;12.70;9.60;;;;;;;;;;738957;188;919147;-60
2022/04/07 01:28:17;;;;;;;14.63;9.20;;;;;;;;;;745937;186;920032;-60
2022/04/07 01:30:43;;;;;;;14.90;10.10;;;;;;;;;;745408;186;919324;-61
2022/04/07 01:33:09;;;;;;;15.43;10.00;;;;;;;;;;749724;184;919505;-60
2022/04/07 01:35:35;;;;;;;15.33;10.47;;;;;;;;;;755712;185;920019;-61
2022/04/07 01:38:00;;;;;;;15.10;10.30;;;;;;;;;;744810;185;917883;-61
2022/04/07 01:40:27;;;;;;;11.70;9.73;;;;;;;;;;744033;185;919558;-60
2022/04/07 01:42:53;;;;;;;15.63;9.77;;;;;;;;;;742239;185;918249;-62
2022/04/07 01:45:19;;;;;;;15.20;11.43;;;;;;;;;;746379;185;918644;-60
2022/04/07 01:47:45;;;;;;;14.37;8.50;;;;;;;;;;745354;185;919573;-61
2022/04/07 01:50:11;;;;;;;15.03;10.17;;;;;;;;;;745449;185;918801;-61
2022/04/07 01:52:37;;;;;;;13.37;9.57;;;;;;;;;;751697;186;919797;-61
2022/04/07 01:55:03;;;;;;;14.00;10.07;;;;;;;;;;747802;186;919209;-61
2022/04/07 01:57:29;;;;;;;11.40;8.77;;;;;;;;;;750197;184;921154;-61
2022/04/07 01:59:54;;;;;;;12.30;9.00;;;;;;;;;;754139;186;918763;-60
2022/04/07 02:02:22;;;;;;;10.63;8.77;;;;;;;;;;751872;184;924515;-60
2022/04/07 02:04:59;;;;;;;11.98;8.13;;;;;;;;;;746286;185;917850;-60
2022/04/07 02:07:28;;;;;;;12.90;8.50;;;;;;;;;;745150;187;1023690;-60
2022/04/07 02:09:55;;;;;;;14.13;8.63;;;;;;;;;;749892;187;918736;-61
2022/04/07 02:12:20;;;;;;;11.10;7.57;;;;;;;;;;743993;187;918963;-61
2022/04/07 02:14:47;;;;;;;10.00;7.57;;;;;;;;;;741371;188;915847;-61
2022/04/07 02:17:13;;;;;;;9.90;7.12;;;;;;;;;;742012;186;920246;-61
2022/04/07 02:19:38;;;;;;;11.00;8.47;;;;;;;;;;748782;187;944628;-60
2022/04/07 02:22:04;;;;;;;11.05;7.90;;;;;;;;;;741896;187;1092390;-61
2022/04/07 02:24:31;;;;;;;10.37;7.63;;;;;;;;;;741025;188;919287;-61
2022/04/07 02:26:56;;;;;;;9.70;7.43;;;;;;;;;;748124;187;920543;-60
2022/04/07 02:29:22;;;;;;;10.67;7.67;;;;;;;;;;746581;187;919448;-61
2022/04/07 02:31:48;;;;;;;16.47;8.60;;;;;;;;;;753266;185;918818;-60
2022/04/07 02:34:14;;;;;;;11.23;8.88;;;;;;;;;;746454;188;919032;-60
2022/04/07 02:36:39;;;;;;;11.03;7.10;;;;;;;;;;741238;188;919619;-61
2022/04/07 02:39:05;;;;;;;11.43;7.30;;;;;;;;;;750212;185;920521;-60
2022/04/07 02:41:31;;;;;;;11.00;8.10;;;;;;;;;;740636;187;918603;-61
2022/04/07 02:43:57;;;;;;;9.57;6.50;;;;;;;;;;750002;183;919094;-61
2022/04/07 02:46:23;;;;;;;10.47;7.47;;;;;;;;;;739135;187;919466;-61
2022/04/07 02:48:49;;;;;;;14.03;7.30;;;;;;;;;;744855;186;920419;-60
2022/04/07 02:51:15;;;;;;;12.03;7.30;;;;;;;;;;750959;187;922076;-61
2022/04/07 02:53:40;;;;;;;9.67;7.43;;;;;;;;;;747898;186;937821;-61
2022/04/07 02:56:06;;;;;;;14.47;8.00;;;;;;;;;;753016;185;918495;-60
2022/04/07 02:58:32;;;;;;;12.27;7.40;;;;;;;;;;751600;184;945190;-62
2022/04/07 03:00:58;;;;;;;8.70;6.60;;;;;;;;;;750615;184;919918;-62
2022/04/07 03:03:24;;;;;;;27.53;7.30;;;;;;;;;;746726;185;919620;-61
2022/04/07 03:05:50;;;;;;;9.40;6.50;;;;;;;;;;745623;187;919409;-60
2022/04/07 03:08:15;;;;;;;13.50;8.77;;;;;;;;;;753210;183;919716;-63
2022/04/07 03:10:41;;;;;;;11.00;8.00;;;;;;;;;;745062;185;918808;-60
2022/04/07 03:13:07;;;;;;;13.57;9.30;;;;;;;;;;744582;186;919248;-60
2022/04/07 03:15:33;;;;;;;11.60;8.53;;;;;;;;;;748360;184;918139;-61
2022/04/07 03:17:59;;;;;;;12.57;7.70;;;;;;;;;;741378;183;919483;-60
2022/04/07 03:20:25;;;;;;;12.47;9.13;;;;;;;;;;742459;184;918950;-61
2022/04/07 03:22:50;;;;;;;11.73;8.67;;;;;;;;;;749283;185;919763;-60
2022/04/07 03:25:16;;;;;;;13.70;9.20;;;;;;;;;;744499;186;948077;-61
2022/04/07 03:27:42;;;;;;;14.43;9.83;;;;;;;;;;746063;184;919920;-60
2022/04/07 03:30:09;;;;;;;14.67;10.40;;;;;;;;;;745420;187;918943;-60
2022/04/07 03:32:34;;;;;;;13.80;9.80;;;;;;;;;;740997;184;919446;-64
2022/04/07 03:35:00;;;;;;;17.03;10.40;;;;;;;;;;740277;187;990680;-60
2022/04/07 03:37:26;;;;;;;17.17;11.17;;;;;;;;;;743932;185;918006;-62
2022/04/07 03:39:52;;;;;;;26.33;15.70;;;;;;;;;;746225;185;921720;-61
2022/04/07 03:42:18;;;;;;;17.73;12.40;;;;;;;;;;747210;185;923630;-61
2022/04/07 03:44:44;;;;;;;15.50;10.48;;;;;;;;;;745362;186;915330;-60
2022/04/07 03:47:09;;;;;;;18.47;15.53;;;;;;;;;;748354;185;915309;-60
2022/04/07 03:49:36;;;;;;;16.53;10.57;;;;;;;;;;745403;184;918756;-60
2022/04/07 03:52:01;;;;;;;14.20;9.73;;;;;;;;;;743525;185;919252;-60
2022/04/07 03:54:27;;;;;;;14.73;10.50;;;;;;;;;;749394;185;919342;-60
2022/04/07 03:56:53;;;;;;;14.40;9.30;;;;;;;;;;750258;184;919491;-60
2022/04/07 03:59:19;;;;;;;14.27;11.70;;;;;;;;;;731777;185;918593;-61
2022/04/07 04:01:45;;;;;;;13.30;8.93;;;;;;;;;;743639;186;918721;-60
2022/04/07 04:04:10;;;;;;;12.57;8.60;;;;;;;;;;753784;185;1123534;-61
2022/04/07 04:06:36;;;;;;;12.73;9.13;;;;;;;;;;751005;184;876184;-61
2022/04/07 04:09:02;;;;;;;12.43;8.60;;;;;;;;;;748300;186;647717;-60
2022/04/07 04:11:28;;;;;;;12.70;8.63;;;;;;;;;;748326;183;917952;-61
2022/04/07 04:13:54;;;;;;;13.67;8.67;;;;;;;;;;747791;186;919563;-62
2022/04/07 04:16:20;;;;;;;11.60;8.87;;;;;;;;;;748041;185;637989;-61
2022/04/07 04:18:45;;;;;;;13.27;8.80;;;;;;;;;;749462;183;618626;-60
2022/04/07 04:21:11;;;;;;;11.33;8.50;;;;;;;;;;746590;184;635848;-61
2022/04/07 04:23:38;;;;;;;18.17;9.23;;;;;;;;;;741592;185;919992;-61
2022/04/07 04:26:04;;;;;;;10.70;8.10;;;;;;;;;;747736;186;917921;-60
2022/04/07 04:28:29;;;;;;;14.03;9.70;;;;;;;;;;745883;185;917797;-61
2022/04/07 04:30:55;;;;;;;12.87;9.80;;;;;;;;;;743388;184;919549;-61
2022/04/07 04:33:20;;;;;;;13.97;10.50;;;;;;;;;;744688;186;919215;-60
2022/04/07 04:35:46;;;;;;;14.60;9.10;;;;;;;;;;755453;185;627849;-60
2022/04/07 04:38:12;;;;;;;13.90;9.20;;;;;;;;;;742192;185;918663;-60
2022/04/07 04:40:38;;;;;;;13.83;9.27;;;;;;;;;;740515;186;958279;-60
2022/04/07 04:43:04;;;;;;;16.27;9.80;;;;;;;;;;746173;188;918341;-61
2022/04/07 04:45:30;;;;;;;10.87;8.97;;;;;;;;;;750044;185;629974;-60
2022/04/07 04:47:56;;;;;;;13.73;9.43;;;;;;;;;;750499;187;613795;-63
2022/04/07 04:50:21;;;;;;;19.63;10.37;;;;;;;;;;752286;187;634797;-60
2022/04/07 04:52:47;;;;;;;17.47;9.40;;;;;;;;;;747805;185;619546;-62
2022/04/07 04:55:13;;;;;;;15.27;10.00;;;;;;;;;;748493;185;630246;-61
2022/04/07 04:57:39;;;;;;;13.90;9.40;;;;;;;;;;742816;185;919243;-60
2022/04/07 05:00:05;;;;;;;15.20;10.53;;;;;;;;;;746236;185;920188;-60
2022/04/07 05:02:31;;;;;;;16.80;10.03;;;;;;;;;;743053;184;1021092;-61
2022/04/07 05:04:57;;;;;;;19.87;11.40;;;;;;;;;;743837;186;919303;-61
2022/04/07 05:07:23;;;;;;;15.80;10.30;;;;;;;;;;746470;185;919257;-60
2022/04/07 05:09:49;;;;;;;17.60;11.63;;;;;;;;;;742890;186;919103;-61
2022/04/07 05:12:15;;;;;;;15.70;11.47;;;;;;;;;;746979;186;918989;-61
2022/04/07 05:14:40;;;;;;;20.07;13.13;;;;;;;;;;751408;187;920162;-60
2022/04/07 05:17:07;;;;;;;19.20;11.97;;;;;;;;;;744471;186;919093;-61
2022/04/07 05:19:32;;;;;;;17.58;13.00;;;;;;;;;;739373;186;1139395;-60
2022/04/07 05:21:58;;;;;;;19.23;13.40;;;;;;;;;;745312;186;919087;-60
2022/04/07 05:24:24;;;;;;;20.77;13.87;;;;;;;;;;750821;185;937668;-60
2022/04/07 05:26:50;;;;;;;18.53;13.67;;;;;;;;;;742833;185;926701;-63
2022/04/07 05:29:15;;;;;;;16.77;12.37;;;;;;;;;;746310;186;918737;-60
2022/04/07 05:31:41;;;;;;;21.70;14.83;;;;;;;;;;750375;185;919286;-61
2022/04/07 05:34:08;;;;;;;20.93;13.83;;;;;;;;;;745161;186;918565;-61
2022/04/07 05:36:33;;;;;;;17.90;13.17;;;;;;;;;;745748;186;919310;-62
2022/04/07 05:38:59;;;;;;;19.03;13.30;;;;;;;;;;750500;187;917777;-62
2022/04/07 05:41:25;;;;;;;24.70;14.80;;;;;;;;;;746250;184;919679;-60
2022/04/07 05:43:51;;;;;;;20.17;13.20;;;;;;;;;;745038;186;919089;-61
2022/04/07 05:46:16;;;;;;;20.37;13.50;;;;;;;;;;743657;184;919059;-62
2022/04/07 05:48:42;;;;;;;19.23;12.87;;;;;;;;;;749402;186;918850;-60
2022/04/07 05:51:08;;;;;;;24.43;14.13;;;;;;;;;;744723;187;924256;-60
2022/04/07 05:53:34;;;;;;;23.90;14.60;;;;;;;;;;744257;187;918003;-60
2022/04/07 05:56:00;;;;;;;23.30;16.33;;;;;;;;;;746625;185;918869;-61
2022/04/07 05:58:26;;;;;;;24.80;17.47;;;;;;;;;;740838;185;919282;-61
2022/04/07 06:00:52;;;;;;;23.13;15.27;;;;;;;;;;740975;187;920009;-61
2022/04/07 06:03:17;;;;;;;21.57;15.40;;;;;;;;;;743831;188;918293;-60
2022/04/07 06:05:43;;;;;;;22.50;15.83;;;;;;;;;;712440;194;919181;-60
2022/04/07 06:08:09;;;;;;;22.13;15.23;;;;;;;;;;712123;190;919830;-60
2022/04/07 06:10:36;;;;;;;20.10;14.07;;;;;;;;;;752855;185;919233;-62
2022/04/07 06:13:01;;;;;;;19.53;14.70;;;;;;;;;;747902;186;919356;-61
2022/04/07 06:15:28;;;;;;;27.60;15.77;;;;;;;;;;739547;185;918894;-61
2022/04/07 06:17:53;;;;;;;18.67;14.27;;;;;;;;;;754251;184;624394;-62
2022/04/07 06:20:18;;;;;;;22.63;14.50;;;;;;;;;;748041;187;920524;-61
2022/04/07 06:22:44;;;;;;;19.87;15.33;;;;;;;;;;752495;183;919533;-64
2022/04/07 06:25:10;;;;;;;22.08;16.98;;;;;;;;;;746757;186;1020030;-61
2022/04/07 06:27:37;;;;;;;29.90;15.43;;;;;;;;;;756871;184;919631;-61
2022/04/07 06:30:03;;;;;;;24.10;15.67;;;;;;;;;;745945;185;918985;-61
2022/04/07 06:32:28;;;;;;;22.90;16.17;;;;;;;;;;741406;187;917834;-62
2022/04/07 06:34:54;;;;;;;20.80;14.17;;;;;;;;;;753261;187;918295;-61
2022/04/07 06:37:20;;;;;;;18.53;15.70;;;;;;;;;;743258;184;915908;-61
2022/04/07 06:39:46;;;;;;;21.50;13.83;;;;;;;;;;746770;184;626629;-61
2022/04/07 06:42:12;;;;;;;18.70;13.50;;;;;;;;;;755716;185;627818;-61
2022/04/07 06:44:38;;;;;;;20.93;15.70;;;;;;;;;;755163;184;626075;-63
2022/04/07 06:47:03;;;;;;;18.30;14.57;;;;;;;;;;757293;184;630341;-62
2022/04/07 06:49:29;;;;;;;19.23;13.97;;;;;;;;;;745898;187;919550;-62
2022/04/07 06:51:55;;;;;;;19.80;13.93;;;;;;;;;;745710;188;919363;-61
2022/04/07 06:54:21;;;;;;;21.87;15.37;;;;;;;;;;715264;193;930729;-61
2022/04/07 06:56:47;;;;;;;24.37;15.33;;;;;;;;;;747600;185;918229;-61
2022/04/07 06:59:13;;;;;;;21.45;15.55;;;;;;;;;;749171;186;919262;-61
2022/04/07 07:01:39;;;;;;;19.27;14.67;;;;;;;;;;742709;185;1287393;-62
2022/04/07 07:04:04;;;;;;;20.23;13.37;;;;;;;;;;745183;187;919634;-62
2022/04/07 07:06:30;;;;;;;19.77;14.67;;;;;;;;;;746235;186;919648;-62
2022/04/07 07:08:56;;;;;;;18.63;14.30;;;;;;;;;;743142;187;920123;-61
2022/04/07 07:11:22;;;;;;;19.73;13.43;;;;;;;;;;743413;185;922494;-61
2022/04/07 07:13:48;;;;;;;20.80;13.60;;;;;;;;;;745671;186;918918;-62
2022/04/07 07:16:14;;;;;;;19.30;13.57;;;;;;;;;;747930;185;918540;-62
2022/04/07 07:18:42;;;;;;;18.50;14.10;;;;;;;;;;744091;187;918911;-62
2022/04/07 07:21:05;;;;;;;19.07;14.83;;;;;;;;;;744386;186;1020841;-61
2022/04/07 07:23:32;;;;;;;21.93;14.20;;;;;;;;;;747855;186;919731;-61
2022/04/07 07:25:57;;;;;;;18.90;13.67;;;;;;;;;;742310;187;920034;-62
2022/04/07 07:28:23;;;;;;;17.57;15.00;;;;;;;;;;742535;187;1018124;-61
2022/04/07 07:30:50;;;;;;;18.62;14.25;;;;;;;;;;746679;184;926503;-61
2022/04/07 07:33:15;;;;;;;14.43;12.60;;;;;;;;;;752222;183;918816;-61
2022/04/07 07:35:43;;;;;;;21.27;15.00;;;;;;;;;;743658;185;918659;-62
2022/04/07 07:38:08;;;;;;;20.27;13.37;;;;;;;;;;742678;186;928213;-63
2022/04/07 07:40:34;;;;;;;20.83;13.83;;;;;;;;;;753003;185;917390;-62
2022/04/07 07:43:01;;;;;;;19.30;14.97;;;;;;;;;;746847;185;912592;-61
2022/04/07 07:45:27;;;;;;;21.00;14.10;;;;;;;;;;743833;185;911522;-62
2022/04/07 07:47:53;;;;;;;17.70;13.57;;;;;;;;;;750472;186;919364;-62
2022/04/07 07:50:19;;;;;;;17.13;12.30;;;;;;;;;;743352;187;931728;-63
2022/04/07 07:52:45;;;;;;;16.43;13.07;;;;;;;;;;743346;187;919518;-62
2022/04/07 07:55:11;;;;;;;21.60;13.48;;;;;;;;;;744217;185;928077;-61
2022/04/07 07:57:37;;;;;;;21.17;13.20;;;;;;;;;;741167;186;918230;-61
2022/04/07 08:00:03;;;;;;;15.23;12.13;;;;;;;;;;741315;187;918555;-62
2022/04/07 08:02:31;;;;;;;15.27;10.77;;;;;;;;;;743076;187;921547;-62
2022/04/07 08:04:55;;;;;;;15.88;10.38;;;;;;;;;;751622;186;919628;-62
2022/04/07 08:07:22;;;;;;;13.50;10.40;;;;;;;;;;743374;184;919968;-61
2022/04/07 08:09:46;;;;;;;13.82;10.35;;;;;;;;;;744415;186;1021008;-62
2022/04/07 08:12:12;;;;;;;16.30;11.67;;;;;;;;;;750146;186;918948;-61
2022/04/07 08:14:38;;;;;;;17.20;9.83;;;;;;;;;;746114;185;931141;-62
2022/04/07 08:17:04;;;;;;;12.70;10.57;;;;;;;;;;745574;185;918505;-62
2022/04/07 08:19:30;;;;;;;12.07;9.60;;;;;;;;;;742921;187;919091;-61
2022/04/07 08:21:56;;;;;;;13.00;9.27;;;;;;;;;;745460;187;918745;-61
2022/04/07 08:24:22;;;;;;;12.03;9.47;;;;;;;;;;745242;185;919360;-61
2022/04/07 08:26:48;;;;;;;13.77;10.27;;;;;;;;;;741150;187;919092;-62
2022/04/07 08:29:13;;;;;;;14.17;10.20;;;;;;;;;;746684;187;919578;-62
2022/04/07 08:31:39;;;;;;;11.77;9.33;;;;;;;;;;742492;184;920014;-62
2022/04/07 08:34:05;;;;;;;12.10;9.33;;;;;;;;;;745375;187;918177;-62
2022/04/07 08:36:31;;;;;;;12.53;9.00;;;;;;;;;;750086;186;919437;-62
2022/04/07 08:38:57;;;;;;;15.20;9.50;;;;;;;;;;743733;187;922138;-62
2022/04/07 08:41:23;;;;;;;10.50;8.40;;;;;;;;;;745454;185;918460;-62
2022/04/07 08:43:49;;;;;;;14.32;9.23;;;;;;;;;;749736;185;919808;-62
2022/04/07 08:46:14;;;;;;;11.10;8.20;;;;;;;;;;740031;186;2045032;-62
2022/04/07 08:48:42;;;;;;;10.53;8.73;;;;;;;;;;745164;183;918985;-61
2022/04/07 08:51:06;;;;;;;10.70;8.47;;;;;;;;;;740535;186;919122;-61
2022/04/07 08:53:33;;;;;;;10.17;7.70;;;;;;;;;;749434;185;919051;-61
2022/04/07 08:55:59;;;;;;;11.93;7.90;;;;;;;;;;745310;187;918452;-62
2022/04/07 08:58:25;;;;;;;10.53;7.73;;;;;;;;;;744235;182;1021411;-63
2022/04/07 09:00:51;;;;;;;6.97;5.55;;;;;;;;;;749386;187;919587;-62
2022/04/07 09:03:17;;;;;;;6.23;5.60;;;;;;;;;;743313;184;918985;-61
2022/04/07 09:05:49;;;;;;;9.30;5.77;;;;;;;;;;742291;184;1021030;-62
2022/04/07 09:08:14;;;;;;;8.10;5.70;;;;;;;;;;742006;184;929771;-62
2022/04/07 09:10:40;;;;;;;7.77;5.97;;;;;;;;;;749640;186;918868;-63
2022/04/07 09:13:06;;;;;;;6.90;6.10;;;;;;;;;;745062;184;918425;-62
2022/04/07 09:15:32;;;;;;;6.17;4.90;;;;;;;;;;743654;184;1021259;-63
2022/04/07 09:18:00;;;;;;;7.97;5.53;;;;;;;;;;750644;187;918803;-63
2022/04/07 09:20:24;;;;;;;7.63;4.90;;;;;;;;;;746842;184;919150;-62
2022/04/07 09:22:58;;;;;;;6.93;4.73;;;;;;;;;;744529;186;918741;-62
2022/04/07 09:25:25;;;;;;;5.60;4.20;;;;;;;;;;746356;185;919662;-62
2022/04/07 09:27:51;;;;;;;6.87;4.70;;;;;;;;;;750354;186;918677;-62
2022/04/07 09:30:17;;;;;;;5.60;3.50;;;;;;;;;;743620;187;920264;-62
2022/04/07 09:32:43;;;;;;;4.67;3.13;;;;;;;;;;742179;184;919335;-62
2022/04/07 09:35:09;;;;;;;4.97;3.77;;;;;;;;;;745541;187;919229;-62
2022/04/07 09:37:36;;;;;;;6.67;3.93;;;;;;;;;;740017;185;919279;-60
2022/04/07 09:40:03;;;;;;;4.28;3.45;;;;;;;;;;744827;186;919309;-62
2022/04/07 09:42:29;;;;;;;6.80;4.10;;;;;;;;;;742895;186;919415;-63
2022/04/07 09:44:57;;;;;;;17.87;4.83;;;;;;;;;;745957;186;919280;-63
2022/04/07 09:47:21;;;;;;;4.83;3.80;;;;;;;;;;742329;186;1011565;-64
2022/04/07 09:49:47;;;;;;;5.47;3.97;;;;;;;;;;743031;185;931265;-62
2022/04/07 09:52:13;;;;;;;4.57;3.00;;;;;;;;;;748701;187;919682;-64
2022/04/07 09:54:40;;;;;;;4.47;2.53;;;;;;;;;;745906;185;919138;-62
2022/04/07 09:57:05;;;;;;;4.28;3.03;;;;;;;;;;742978;185;921222;-63
2022/04/07 09:59:31;;;;;;;4.73;2.23;;;;;;;;;;751149;185;1021598;-64
2022/04/07 10:01:57;;;;;;;4.10;2.80;;;;;;;;;;744051;186;916259;-63
2022/04/07 10:04:23;;;;;;;4.00;2.50;;;;;;;;;;745308;184;916245;-63
2022/04/07 10:06:49;;;;;;;3.63;2.13;;;;;;;;;;742881;185;917021;-63
2022/04/07 10:09:15;;;;;;;3.50;2.63;;;;;;;;;;747873;184;919634;-63
2022/04/07 10:11:40;;;;;;;4.17;2.60;;;;;;;;;;715811;190;916509;-63
2022/04/07 10:14:08;;;;;;;5.63;3.60;;;;;;;;;;740340;184;916268;-63
2022/04/07 10:16:32;;;;;;;5.40;3.40;;;;;;;;;;751173;186;914727;-64
2022/04/07 10:18:58;;;;;;;5.03;3.30;;;;;;;;;;747362;184;918861;-63
2022/04/07 10:21:25;;;;;;;4.80;2.83;;;;;;;;;;742148;184;918452;-65
2022/04/07 10:23:54;;;;;;;5.00;3.27;;;;;;;;;;743845;185;922093;-63
2022/04/07 10:26:20;;;;;;;5.80;3.97;;;;;;;;;;745702;187;917689;-63
2022/04/07 10:29:00;;;;;;;5.00;3.53;;;;;;;;;;740044;185;918019;-63
2022/04/07 10:31:28;;;;;;;5.63;3.20;;;;;;;;;;741527;184;920027;-61
2022/04/07 10:33:52;;;;;;;5.13;3.70;;;;;;;;;;741502;186;917950;-63
2022/04/07 10:36:18;;;;;;;3.60;2.37;;;;;;;;;;744122;187;1033499;-63
2022/04/07 10:38:44;;;;;;;3.97;3.10;;;;;;;;;;726666;190;919643;-63
2022/04/07 10:41:10;;;;;;;3.70;2.80;;;;;;;;;;746044;185;920521;-65
2022/04/07 10:43:38;;;;;;;7.13;2.33;;;;;;;;;;748049;187;919616;-63
2022/04/07 10:46:06;;;;;;;5.00;3.47;;;;;;;;;;747913;184;918121;-63
2022/04/07 10:48:33;;;;;;;4.60;3.43;;;;;;;;;;746325;185;918111;-63
2022/04/07 10:50:59;;;;;;;4.78;3.05;;;;;;;;;;741122;184;919241;-62
2022/04/07 10:53:27;;;;;;;5.93;3.67;;;;;;;;;;741374;186;919406;-62
2022/04/07 10:55:55;;;;;;;5.53;3.87;;;;;;;;;;742862;184;917899;-62
2022/04/07 10:58:21;;;;;;;4.30;3.33;;;;;;;;;;741868;184;919806;-62
2022/04/07 11:00:46;;;;;;;5.73;3.57;;;;;;;;;;746097;186;920200;-62
2022/04/07 11:03:12;;;;;;;4.87;3.37;;;;;;;;;;744443;185;939612;-62
2022/04/07 11:05:38;;;;;;;5.60;3.80;;;;;;;;;;744534;186;919360;-63
2022/04/07 11:08:04;;;;;;;5.75;3.15;;;;;;;;;;743051;188;919116;-61
2022/04/07 11:10:47;;;;;;;3.43;2.43;;;;;;;;;;754119;185;915528;-63
2022/04/07 11:13:09;;;;;;;4.17;3.07;;;;;;;;;;746751;184;919001;-63
2022/04/07 11:15:35;;;;;;;4.00;2.80;;;;;;;;;;739561;187;919034;-65
2022/04/07 11:18:02;;;;;;;3.97;3.10;;;;;;;;;;740596;188;920969;-64
2022/04/07 11:20:27;;;;;;;4.03;3.07;;;;;;;;;;741587;187;918870;-63
2022/04/07 11:22:55;;;;;;;6.57;3.17;;;;;;;;;;740112;188;919703;-64
2022/04/07 11:25:22;;;;;;;4.40;3.20;;;;;;;;;;741345;186;919070;-64
2022/04/07 11:28:02;;;;;;;3.83;2.87;;;;;;;;;;742467;189;926507;-63
2022/04/07 11:30:34;;;;;;;4.63;3.47;;;;;;;;;;733660;189;919439;-65
2022/04/07 11:33:05;;;;;;;4.33;2.63;;;;;;;;;;753316;185;918459;-64
2022/04/07 11:35:33;;;;;;;4.53;2.70;;;;;;;;;;746399;187;919298;-64
2022/04/07 11:37:57;;;;;;;3.50;2.60;;;;;;;;;;740912;187;915345;-65
2022/04/07 11:40:23;;;;;;;5.65;3.17;;;;;;;;;;746692;187;911825;-64
2022/04/07 11:42:49;;;;;;;4.40;3.60;;;;;;;;;;717353;194;918289;-66
2022/04/07 11:45:15;;;;;;;4.10;3.30;;;;;;;;;;706569;191;916423;-64
2022/04/07 11:47:40;;;;;;;4.53;3.50;;;;;;;;;;735709;187;915781;-64
2022/04/07 11:50:07;;;;;;;4.57;4.10;;;;;;;;;;739868;185;915474;-63
2022/04/07 11:52:33;;;;;;;4.63;3.77;;;;;;;;;;739522;185;916883;-64
2022/04/07 11:54:59;;;;;;;4.53;3.50;;;;;;;;;;739176;188;919208;-63
2022/04/07 11:57:25;;;;;;;4.50;3.30;;;;;;;;;;742726;188;912607;-63
2022/04/07 11:59:50;;;;;;;6.57;3.75;;;;;;;;;;741862;188;918664;-64
2022/04/07 12:02:20;;;;;;;4.20;3.20;;;;;;;;;;741211;186;918315;-64
2022/04/07 12:04:45;;;;;;;4.13;2.50;;;;;;;;;;745838;188;919762;-62
2022/04/07 12:07:11;;;;;;;4.27;3.83;;;;;;;;;;740426;188;919515;-63
2022/04/07 12:09:37;;;;;;;6.07;4.50;;;;;;;;;;742089;187;921374;-66
2022/04/07 12:12:03;;;;;;;4.90;4.07;;;;;;;;;;749266;187;958399;-63
2022/04/07 12:14:29;;;;;;;5.70;4.60;;;;;;;;;;747209;185;915499;-65
2022/04/07 12:16:55;;;;;;;5.80;4.57;;;;;;;;;;745958;187;920503;-63
2022/04/07 12:19:21;;;;;;;4.47;3.57;;;;;;;;;;742912;186;922150;-65
2022/04/07 12:21:50;;;;;;;4.30;3.60;;;;;;;;;;749962;186;916078;-64
2022/04/07 12:24:15;;;;;;;5.63;4.00;;;;;;;;;;747680;186;915966;-62
2022/04/07 12:26:45;;;;;;;4.15;3.28;;;;;;;;;;745837;186;918465;-64
2022/04/07 12:29:26;;;;;;;5.17;3.80;;;;;;;;;;747578;187;917879;-63
2022/04/07 12:31:58;;;;;;;5.70;3.70;;;;;;;;;;748962;185;919117;-63
2022/04/07 12:34:24;;;;;;;4.73;3.67;;;;;;;;;;748949;186;919317;-62
2022/04/07 12:36:50;;;;;;;4.87;3.77;;;;;;;;;;745462;185;949332;-63
2022/04/07 12:39:16;;;;;;;7.03;5.00;;;;;;;;;;745280;184;919026;-64
2022/04/07 12:41:43;;;;;;;5.47;3.23;;;;;;;;;;748395;185;920732;-64
2022/04/07 12:44:08;;;;;;;3.93;3.20;;;;;;;;;;742825;187;918006;-65
2022/04/07 12:46:40;;;;;;;4.20;3.20;;;;;;;;;;740838;187;1123259;-63
2022/04/07 12:49:06;;;;;;;5.80;3.53;;;;;;;;;;743349;187;916801;-65
2022/04/07 12:51:31;;;;;;;5.27;3.70;;;;;;;;;;751732;186;918826;-63
2022/04/07 12:54:03;;;;;;;5.70;4.10;;;;;;;;;;742742;184;919475;-63
2022/04/07 12:56:29;;;;;;;3.70;2.40;;;;;;;;;;743844;184;1017825;-63
2022/04/07 12:58:59;;;;;;;4.62;3.33;;;;;;;;;;745811;186;919566;-64
2022/04/07 13:01:24;;;;;;;4.10;3.23;;;;;;;;;;744045;187;1007473;-64
2022/04/07 13:03:51;;;;;;;4.20;2.73;;;;;;;;;;739196;187;919257;-64
2022/04/07 13:06:17;;;;;;;5.50;3.03;;;;;;;;;;746355;187;921025;-64
2022/04/07 13:08:43;;;;;;;4.03;2.53;;;;;;;;;;754095;185;937619;-63
2022/04/07 13:11:08;;;;;;;4.67;3.17;;;;;;;;;;746191;184;920089;-65
2022/04/07 13:13:34;;;;;;;4.13;3.20;;;;;;;;;;741588;185;919355;-64
2022/04/07 13:16:00;;;;;;;3.87;2.70;;;;;;;;;;752650;185;621525;-64
2022/04/07 13:18:26;;;;;;;3.47;2.77;;;;;;;;;;745614;185;920720;-63
2022/04/07 13:20:52;;;;;;;3.93;3.17;;;;;;;;;;742346;185;1021901;-64
2022/04/07 13:23:18;;;;;;;3.10;2.30;;;;;;;;;;743357;187;918437;-63
2022/04/07 13:25:44;;;;;;;4.03;2.60;;;;;;;;;;745918;187;918326;-64
2022/04/07 13:28:10;;;;;;;4.90;2.63;;;;;;;;;;745447;186;618961;-64
2022/04/07 13:30:36;;;;;;;3.50;2.23;;;;;;;;;;747741;183;634797;-64
2022/04/07 13:33:01;;;;;;;3.00;1.90;;;;;;;;;;752689;187;628623;-65
2022/04/07 13:35:27;;;;;;;3.43;1.87;;;;;;;;;;748767;185;624077;-64
2022/04/07 13:37:57;;;;;;;3.07;1.80;;;;;;;;;;747736;186;924313;-63
2022/04/07 13:40:19;;;;;;;5.70;1.70;;;;;;;;;;746169;187;921369;-63
2022/04/07 13:42:45;;;;;;;4.73;1.90;;;;;;;;;;739884;187;920173;-64
2022/04/07 13:45:11;;;;;;;4.78;1.80;;;;;;;;;;740191;185;919609;-64
2022/04/07 13:47:36;;;;;;;2.60;1.40;;;;;;;;;;747575;187;919475;-63
2022/04/07 13:50:03;;;;;;;3.10;2.00;;;;;;;;;;724252;192;918677;-64
2022/04/07 13:52:29;;;;;;;2.63;1.43;;;;;;;;;;714082;193;919753;-63
2022/04/07 13:54:54;;;;;;;2.40;1.30;;;;;;;;;;745037;184;947953;-63
2022/04/07 13:57:21;;;;;;;2.50;1.47;;;;;;;;;;752824;187;919814;-64
2022/04/07 13:59:46;;;;;;;3.50;1.30;;;;;;;;;;745231;186;919480;-63
2022/04/07 14:02:12;;;;;;;3.03;1.20;;;;;;;;;;744485;185;943220;-65
2022/04/07 14:04:38;;;;;;;3.73;1.27;;;;;;;;;;748010;187;918304;-64
2022/04/07 14:07:04;;;;;;;3.33;1.20;;;;;;;;;;740830;184;919796;-64
2022/04/07 14:09:30;;;;;;;3.10;1.70;;;;;;;;;;739544;186;919175;-63